Time;durP1;ratioP1;P1;durP2;ratioP2;P2;SDS_P1;SDS_P2;PMS_P1;PMS_P2;Temp;Humidity;BMP_temperature;BMP_pressure;BME280_temperature;BME280_humidity;BME280_pressure;Samples;Min_cycle;Max_cycle;Signal;HPM_P1;HPM_P2
2022/10/30 05:36:53;;;;;;;4.97;4.55;;;;;;;9.16;100.00;62940.72;5119698;22;1343488;-78
2022/10/30 05:39:20;;;;;;;4.75;4.32;;;;;;;9.26;100.00;62955.63;5067459;28;20201;-77
2022/10/30 05:41:48;;;;;;;4.65;4.22;;;;;;;9.31;100.00;62956.22;5067230;28;20418;-77
2022/10/30 05:44:14;;;;;;;5.18;4.75;;;;;;;9.42;100.00;62969.63;5052660;28;20189;-76
2022/10/30 05:46:42;;;;;;;4.95;4.55;;;;;;;9.58;100.00;62986.16;5059022;28;20273;-75
2022/10/30 05:49:09;;;;;;;5.40;4.88;;;;;;;9.70;100.00;62998.06;5065134;28;20421;-76
2022/10/30 05:51:35;;;;;;;7.75;6.63;;;;;;;9.79;100.00;63007.88;5066464;28;20235;-77
2022/10/30 05:54:04;;;;;;;8.52;7.80;;;;;;;9.93;100.00;63021.84;5056913;28;20201;-77
2022/10/30 05:56:31;;;;;;;11.98;7.90;;;;;;;9.98;100.00;63027.53;5054425;28;20217;-76
2022/10/30 05:58:58;;;;;;;10.63;8.55;;;;;;;10.12;100.00;63039.50;5050705;28;20198;-77
2022/10/30 06:01:24;;;;;;;9.00;7.68;;;;;;;10.25;100.00;63052.44;5060419;28;20225;-77
2022/10/30 06:03:51;;;;;;;7.65;6.15;;;;;;;10.32;100.00;63065.28;5059212;28;20205;-78
2022/10/30 06:06:18;;;;;;;7.97;6.63;;;;;;;10.47;100.00;63080.78;5056739;28;20273;-77
2022/10/30 06:08:45;;;;;;;6.82;6.22;;;;;;;10.68;100.00;63099.50;5058812;28;20239;-76
2022/10/30 06:11:13;;;;;;;6.07;5.35;;;;;;;10.92;100.00;63124.34;5052491;28;20233;-77
2022/10/30 06:13:40;;;;;;;7.80;6.75;;;;;;;11.18;100.00;63148.19;5050762;28;20198;-76
2022/10/30 06:16:07;;;;;;;6.60;6.10;;;;;;;11.29;100.00;63167.72;5049770;28;20226;-77
2022/10/30 06:18:34;;;;;;;9.02;8.13;;;;;;;11.41;100.00;63175.06;5047877;28;20248;-76
2022/10/30 06:21:01;;;;;;;8.02;7.32;;;;;;;11.47;100.00;63180.75;5062557;28;20217;-77
2022/10/30 06:23:28;;;;;;;9.18;8.32;;;;;;;11.46;100.00;63180.25;5066528;28;20225;-77
2022/10/30 06:25:55;;;;;;;8.95;7.82;;;;;;;11.55;100.00;63186.50;5059616;28;20217;-77
2022/10/30 06:28:23;;;;;;;8.70;7.90;;;;;;;11.62;100.00;63196.81;5063021;28;20193;-76
2022/10/30 06:30:50;;;;;;;12.65;8.02;;;;;;;11.71;100.00;63207.69;5063757;28;20501;-77
2022/10/30 06:33:17;;;;;;;11.45;7.10;;;;;;;11.78;100.00;63210.34;5055079;28;20362;-77
2022/10/30 06:35:44;;;;;;;11.82;7.95;;;;;;;11.59;100.00;63196.28;5060453;28;20295;-77
2022/10/30 06:38:11;;;;;;;11.45;7.60;;;;;;;11.48;100.00;63179.78;5069223;28;20202;-76
2022/10/30 06:40:38;;;;;;;10.32;8.60;;;;;;;11.45;100.00;63178.69;5063238;28;20201;-78
2022/10/30 06:43:05;;;;;;;9.30;7.97;;;;;;;11.41;100.00;63175.06;5049055;28;20202;-76
2022/10/30 06:45:33;;;;;;;10.77;8.93;;;;;;;11.37;100.00;63167.88;5053670;28;20201;-76
2022/10/30 06:48:01;;;;;;;16.50;10.18;;;;;;;11.46;100.00;63182.28;5059191;28;20272;-77
2022/10/30 06:50:28;;;;;;;10.90;9.70;;;;;;;11.56;100.00;63190.59;5061053;28;20205;-77
2022/10/30 06:52:55;;;;;;;12.90;10.45;;;;;;;11.65;100.00;63199.41;5068224;28;20247;-76
2022/10/30 06:55:22;;;;;;;14.30;10.50;;;;;;;11.54;100.00;63185.97;5068085;28;20236;-78
2022/10/30 06:57:54;;;;;;;16.63;10.25;;;;;;;11.50;100.00;63183.88;5058770;28;20201;-77
2022/10/30 07:00:21;;;;;;;18.15;12.05;;;;;;;11.47;100.00;63175.66;5053568;28;20206;-78
2022/10/30 07:02:57;;;;;;;13.18;10.77;;;;;;;11.50;100.00;63183.88;5048551;28;20545;-78
2022/10/30 07:05:24;;;;;;;14.90;12.00;;;;;;;11.22;100.00;63157.94;5050610;28;20265;-78
2022/10/30 07:07:51;;;;;;;19.67;13.75;;;;;;;11.24;100.00;63156.94;5052668;28;20240;-77
2022/10/30 07:10:18;;;;;;;17.25;12.75;;;;;;;11.15;100.00;63148.13;5056221;28;20232;-78
2022/10/30 07:12:52;;;;;;;20.05;13.82;;;;;;;11.26;100.00;63161.56;5048126;28;20264;-77
2022/10/30 07:15:18;;;;;;;21.10;13.75;;;;;;;11.42;100.00;63178.66;5050226;28;20202;-78
2022/10/30 07:17:52;;;;;;;18.42;13.13;;;;;;;11.62;100.00;63194.28;5065529;28;20201;-78
2022/10/30 07:20:21;;;;;;;21.90;14.23;;;;;;;11.51;100.00;63187.97;5048902;28;20201;-77
2022/10/30 07:22:48;;;;;;;20.52;13.18;;;;;;;11.52;100.00;63180.84;5058151;28;20208;-77
2022/10/30 07:25:15;;;;;;;26.92;14.27;;;;;;;11.43;100.00;63174.06;5062947;28;20204;-77
2022/10/30 07:27:43;;;;;;;23.70;13.30;;;;;;;11.57;100.00;63193.66;5056611;28;20292;-78
2022/10/30 07:30:11;;;;;;;21.02;13.52;;;;;;;11.75;100.00;63207.25;5055645;28;20228;-76
2022/10/30 07:32:38;;;;;;;17.20;14.05;;;;;;;11.84;100.00;63218.59;5061214;28;20236;-78
2022/10/30 07:35:06;;;;;;;21.58;13.50;;;;;;;11.84;100.00;63216.56;5064563;28;20205;-79
2022/10/30 07:37:35;;;;;;;18.02;13.35;;;;;;;11.95;99.94;63227.44;5050072;28;20252;-78
2022/10/30 07:40:02;;;;;;;15.88;12.57;;;;;;;12.07;99.73;63239.88;5048386;28;20220;-78
2022/10/30 07:42:29;;;;;;;17.52;13.80;;;;;;;12.25;99.19;63263.66;5047471;28;20218;-76
2022/10/30 07:44:56;;;;;;;22.05;14.98;;;;;;;12.17;99.96;63250.75;5051899;28;20231;-76
2022/10/30 07:47:23;;;;;;;24.15;14.32;;;;;;;12.21;99.60;63254.38;5047139;28;20222;-77
2022/10/30 07:49:50;;;;;;;21.58;13.75;;;;;;;12.34;99.51;63273.47;5049032;28;20201;-77
2022/10/30 07:52:17;;;;;;;18.90;13.88;;;;;;;12.18;99.11;63256.91;5055311;28;20252;-78
2022/10/30 07:54:45;;;;;;;20.10;13.98;;;;;;;12.33;99.80;63266.81;5050564;28;20206;-76
2022/10/30 07:57:12;;;;;;;19.50;13.90;;;;;;;12.47;98.43;63286.97;5047428;28;20325;-76
2022/10/30 07:59:39;;;;;;;17.48;13.75;;;;;;;12.58;98.20;63295.81;5049544;28;20261;-78
2022/10/30 08:02:06;;;;;;;15.90;13.32;;;;;;;12.72;98.08;63307.25;5051259;28;20222;-78
2022/10/30 08:04:33;;;;;;;21.48;15.13;;;;;;;12.79;97.16;63312.47;5059526;28;20269;-76
2022/10/30 08:06:59;;;;;;;18.02;13.85;;;;;;;12.91;96.83;63329.00;5053152;28;20218;-78
2022/10/30 08:09:26;;;;;;;21.13;14.82;;;;;;;13.08;97.08;63344.59;5046782;28;20233;-77
2022/10/30 08:11:54;;;;;;;20.02;14.68;;;;;;;13.21;95.72;63353.00;5056040;28;20232;-77
2022/10/30 08:14:21;;;;;;;16.05;13.27;;;;;;;13.26;95.69;63365.84;5068953;28;20193;-79
2022/10/30 08:16:48;;;;;;;20.20;13.10;;;;;;;13.39;94.65;63378.81;5066801;28;20217;-77
2022/10/30 08:19:15;;;;;;;16.52;11.80;;;;;;;13.60;94.03;63403.69;5068396;28;20202;-77
2022/10/30 08:21:42;;;;;;;18.48;12.77;;;;;;;13.74;92.81;63417.69;5065746;28;20229;-77
2022/10/30 08:24:09;;;;;;;17.33;11.77;;;;;;;13.76;90.94;63419.75;5064637;28;20193;-77
2022/10/30 08:26:36;;;;;;;18.83;11.57;;;;;;;13.82;90.48;63429.06;5066430;28;20224;-77
2022/10/30 08:29:04;;;;;;;17.83;12.05;;;;;;;13.93;90.07;63436.91;5064444;28;20220;-77
2022/10/30 08:31:31;;;;;;;14.95;12.02;;;;;;;14.05;89.28;63447.31;5070767;28;20328;-77
2022/10/30 08:33:58;;;;;;;17.77;12.13;;;;;;;14.09;88.28;63451.47;5068595;28;20185;-78
2022/10/30 08:36:25;;;;;;;16.17;12.20;;;;;;;14.20;87.76;63460.34;5065523;28;20231;-76
2022/10/30 08:38:52;;;;;;;18.48;12.52;;;;;;;14.18;86.93;63460.81;5054963;28;20198;-77
2022/10/30 08:41:18;;;;;;;11.85;10.48;;;;;;;14.42;86.06;63485.75;5063748;28;20229;-78
2022/10/30 08:43:45;;;;;;;15.93;11.52;;;;;;;14.57;84.83;63501.31;5068375;28;20486;-77
2022/10/30 08:46:14;;;;;;;16.52;11.52;;;;;;;14.69;84.30;63511.22;5064051;28;20220;-79
2022/10/30 08:48:40;;;;;;;11.50;10.20;;;;;;;14.80;83.52;63525.22;5065359;28;20204;-75
2022/10/30 08:51:07;;;;;;;11.73;9.90;;;;;;;14.97;82.92;63545.44;5066840;28;20217;-77
2022/10/30 08:53:34;;;;;;;11.75;9.48;;;;;;;14.75;84.03;63520.00;5065742;28;20377;-78
2022/10/30 08:56:01;;;;;;;10.88;9.05;;;;;;;14.80;83.45;63527.78;5063965;28;20228;-78
2022/10/30 08:58:28;;;;;;;11.07;10.02;;;;;;;14.81;84.16;63526.25;5048384;28;20210;-76
2022/10/30 09:00:55;;;;;;;15.48;10.15;;;;;;;15.01;83.33;63541.91;5066954;28;20395;-78
2022/10/30 09:03:23;;;;;;;14.48;10.02;;;;;;;15.07;81.52;63553.28;5065455;28;20444;-79
2022/10/30 09:05:50;;;;;;;14.65;9.35;;;;;;;15.13;81.80;63558.47;5062622;28;20227;-77
2022/10/30 09:08:17;;;;;;;12.77;11.05;;;;;;;15.27;80.91;63573.53;5054683;28;20198;-77
2022/10/30 09:10:43;;;;;;;12.30;9.93;;;;;;;15.38;80.84;63584.97;5050017;28;20259;-76
2022/10/30 09:13:10;;;;;;;12.50;9.68;;;;;;;15.59;79.76;63608.84;5063766;28;20278;-76
2022/10/30 09:15:37;;;;;;;15.45;9.65;;;;;;;15.65;79.66;63615.09;5049488;28;20216;-77
2022/10/30 09:18:05;;;;;;;12.63;9.57;;;;;;;15.61;78.86;63608.91;5047725;28;20209;-77
2022/10/30 09:20:33;;;;;;;18.63;10.02;;;;;;;15.89;77.96;63637.50;5050713;28;20427;-77
2022/10/30 09:23:00;;;;;;;11.65;9.77;;;;;;;15.95;77.10;63644.25;5049152;28;20244;-78
2022/10/30 09:25:27;;;;;;;11.38;10.05;;;;;;;16.20;74.54;63667.16;5049120;28;20234;-78
2022/10/30 09:27:54;;;;;;;14.48;10.23;;;;;;;16.33;73.57;63687.84;5062878;28;20200;-77
2022/10/30 09:30:21;;;;;;;16.30;10.20;;;;;;;16.36;73.58;63686.34;5060226;28;20213;-78
2022/10/30 09:32:54;;;;;;;12.25;11.00;;;;;;;16.44;72.57;63694.16;5045231;28;20256;-77
2022/10/30 09:35:21;;;;;;;15.45;11.20;;;;;;;16.49;71.87;63699.38;5047911;28;21373;-77
2022/10/30 09:37:49;;;;;;;14.25;9.50;;;;;;;16.70;72.04;63721.75;5055262;28;20304;-77
2022/10/30 09:40:23;;;;;;;17.30;11.73;;;;;;;16.79;70.87;63730.59;5047874;28;20193;-77
2022/10/30 09:42:51;;;;;;;14.45;10.35;;;;;;;16.59;70.83;63712.34;5061786;28;20207;-78
2022/10/30 09:45:57;;;;;;;13.98;11.18;;;;;;;16.49;71.25;63699.91;5046939;28;20280;-77
2022/10/30 09:48:53;;;;;;;18.30;11.52;;;;;;;16.71;70.95;63722.78;5041932;28;20197;-77
2022/10/30 09:51:37;;;;;;;15.05;11.15;;;;;;;16.79;70.77;63735.75;5058973;28;20221;-78
2022/10/30 09:54:15;;;;;;;14.88;10.98;;;;;;;17.00;69.51;63752.97;5062076;28;20197;-77
2022/10/30 09:56:48;;;;;;;12.93;10.80;;;;;;;17.19;68.38;63772.75;5062830;28;20217;-77
2022/10/30 09:59:30;;;;;;;18.05;11.68;;;;;;;17.33;66.82;63791.94;5049429;28;20366;-75
2022/10/30 10:02:03;;;;;;;12.82;11.18;;;;;;;17.50;66.28;63804.50;5054438;28;20223;-76
2022/10/30 10:04:40;;;;;;;14.52;10.98;;;;;;;17.62;64.58;63819.59;5046327;28;20220;-77
2022/10/30 10:07:14;;;;;;;14.30;11.65;;;;;;;17.80;63.87;63838.34;5054711;28;20225;-77
2022/10/30 10:09:44;;;;;;;13.73;11.90;;;;;;;17.77;63.82;63832.66;5049761;28;20238;-77
2022/10/30 10:12:18;;;;;;;14.57;10.85;;;;;;;17.91;63.90;63849.28;5045875;28;20236;-79
2022/10/30 10:14:48;;;;;;;13.60;10.40;;;;;;;17.80;63.98;63835.25;5065020;28;20193;-76
2022/10/30 10:17:24;;;;;;;13.95;10.77;;;;;;;17.88;63.81;63846.13;5059217;28;20239;-77
2022/10/30 10:19:59;;;;;;;11.40;10.27;;;;;;;17.99;62.00;63858.13;5049014;28;20215;-77
2022/10/30 10:22:29;;;;;;;12.13;9.82;;;;;;;18.06;61.67;63865.41;5047731;28;20220;-76
2022/10/30 10:24:57;;;;;;;23.88;10.27;;;;;;;18.31;58.99;63891.47;5062044;28;20243;-77
2022/10/30 10:27:40;;;;;;;10.50;8.90;;;;;;;18.52;57.85;63910.25;5047974;28;20213;-76
2022/10/30 10:30:13;;;;;;;14.38;9.50;;;;;;;18.50;56.49;63910.25;5053452;28;20186;-77
2022/10/30 10:33:09;;;;;;;15.18;10.68;;;;;;;18.61;56.62;63919.66;5052456;28;20556;-77
2022/10/30 10:35:53;;;;;;;15.65;9.63;;;;;;;18.87;55.23;63946.22;5064125;28;20615;-78
2022/10/30 10:38:34;;;;;;;14.57;10.75;;;;;;;19.02;55.05;63967.53;5064012;28;20221;-78
2022/10/30 10:41:12;;;;;;;12.13;8.70;;;;;;;19.12;53.04;63972.28;5050039;28;20559;-76
2022/10/30 10:43:51;;;;;;;11.40;8.73;;;;;;;19.06;51.71;63969.13;5050949;28;20350;-79
2022/10/30 10:46:41;;;;;;;10.85;7.80;;;;;;;19.28;51.02;63988.97;5053208;28;20275;-79
2022/10/30 10:49:22;;;;;;;12.20;7.75;;;;;;;19.25;51.01;63988.94;5045941;28;20224;-77
2022/10/30 10:51:54;;;;;;;7.20;6.50;;;;;;;19.37;50.70;64001.47;5065587;28;20429;-77
2022/10/30 10:54:26;;;;;;;7.60;6.40;;;;;;;19.42;49.66;64009.28;5055232;28;20198;-79
2022/10/30 10:56:55;;;;;;;7.05;6.35;;;;;;;19.33;49.03;63997.31;5046541;28;20217;-78
2022/10/30 10:59:30;;;;;;;8.38;5.70;;;;;;;19.44;49.13;64008.25;5062690;28;20221;-76
2022/10/30 11:02:15;;;;;;;6.28;5.40;;;;;;;19.34;49.08;63998.34;5047351;28;20394;-78
2022/10/30 11:04:46;;;;;;;12.20;5.70;;;;;;;19.29;49.04;63990.00;5047451;28;20198;-77
2022/10/30 11:07:20;;;;;;;6.03;5.18;;;;;;;19.31;48.97;64000.38;5067031;28;20217;-78
2022/10/30 11:09:52;;;;;;;8.00;5.93;;;;;;;19.40;49.10;64004.06;5065300;28;20247;-76
2022/10/30 11:12:24;;;;;;;6.45;5.63;;;;;;;19.72;49.11;64034.88;5053768;28;20232;-78
2022/10/30 11:14:52;;;;;;;8.75;6.57;;;;;;;19.73;48.63;64038.50;5046444;28;20216;-77
2022/10/30 11:17:24;;;;;;;9.57;5.88;;;;;;;19.46;49.53;64010.34;5051649;28;20529;-79
2022/10/30 11:19:56;;;;;;;5.45;4.95;;;;;;;19.52;49.98;64014.53;5050067;28;20205;-77
2022/10/30 11:22:29;;;;;;;6.97;5.07;;;;;;;19.68;49.57;64035.34;5052827;28;20248;-78
2022/10/30 11:24:56;;;;;;;6.22;5.10;;;;;;;19.70;49.40;64035.38;5049042;28;20260;-77
2022/10/30 11:27:29;;;;;;;8.07;4.40;;;;;;;19.91;48.74;64057.28;5049652;28;20288;-77
2022/10/30 11:29:59;;;;;;;5.50;4.57;;;;;;;19.99;48.93;64063.03;5056162;28;20437;-78
2022/10/30 11:32:28;;;;;;;6.80;5.75;;;;;;;20.21;48.52;64088.59;5070186;28;20585;-78
2022/10/30 11:35:03;;;;;;;7.05;5.15;;;;;;;20.01;48.18;64069.78;5068886;28;20218;-78
2022/10/30 11:37:32;;;;;;;6.30;5.40;;;;;;;20.17;47.81;64083.91;5066000;28;20228;-78
2022/10/30 11:40:05;;;;;;;5.32;4.82;;;;;;;20.36;48.09;64101.16;5052999;28;20197;-78
2022/10/30 11:42:37;;;;;;;7.93;4.32;;;;;;;20.41;47.02;64108.94;5049501;28;20219;-78
2022/10/30 11:45:14;;;;;;;4.97;4.50;;;;;;;20.54;47.01;64125.09;5046441;28;20194;-78
2022/10/30 11:47:42;;;;;;;5.93;4.18;;;;;;;20.56;46.46;64122.00;5051141;28;20224;-78
2022/10/30 11:50:18;;;;;;;4.00;3.70;;;;;;;20.70;45.62;64139.22;5048113;28;20244;-78
2022/10/30 11:52:47;;;;;;;4.15;3.80;;;;;;;20.81;45.87;64152.78;5050295;28;20222;-79
2022/10/30 11:55:18;;;;;;;4.45;4.13;;;;;;;20.89;45.46;64158.53;5067008;28;20205;-78
2022/10/30 11:57:49;;;;;;;6.60;4.15;;;;;;;20.82;45.35;64148.63;5069425;28;20231;-77
2022/10/30 12:00:20;;;;;;;3.53;3.22;;;;;;;20.98;44.69;64165.88;5057546;28;20193;-78
2022/10/30 12:02:50;;;;;;;5.10;3.83;;;;;;;21.05;44.13;64170.59;5065720;28;20376;-77
2022/10/30 12:05:44;;;;;;;4.57;4.18;;;;;;;20.92;44.94;64161.66;5055743;28;20194;-78
2022/10/30 12:08:19;;;;;;;4.03;3.42;;;;;;;20.92;44.46;64162.19;5012414;28;20270;-79
2022/10/30 12:10:54;;;;;;;4.85;3.95;;;;;;;20.93;43.66;64157.53;5048383;28;20213;-77
2022/10/30 12:13:25;;;;;;;5.65;3.17;;;;;;;20.77;44.66;64143.41;5050517;28;20218;-79
2022/10/30 12:16:12;;;;;;;4.18;3.20;;;;;;;20.92;43.69;64162.19;5057970;28;20221;-77
2022/10/30 12:18:40;;;;;;;4.97;3.97;;;;;;;20.96;43.16;64165.84;5060586;28;20196;-78
2022/10/30 12:21:08;;;;;;;3.35;3.05;;;;;;;21.13;42.79;64181.53;5052565;28;20232;-77
2022/10/30 12:23:35;;;;;;;3.60;3.20;;;;;;;21.01;43.67;64171.06;5049101;28;20238;-78
2022/10/30 12:26:09;;;;;;;4.90;3.45;;;;;;;21.07;43.53;64179.94;5054943;28;20465;-78
2022/10/30 12:28:41;;;;;;;4.80;3.95;;;;;;;21.26;42.78;64200.28;5061369;28;20204;-80
2022/10/30 12:31:14;;;;;;;6.57;3.20;;;;;;;21.28;42.43;64199.78;5048338;28;20228;-78
2022/10/30 12:33:45;;;;;;;6.95;3.35;;;;;;;21.21;41.90;64189.88;5049367;28;20229;-77
2022/10/30 12:36:16;;;;;;;3.90;3.53;;;;;;;21.38;41.99;64204.53;5048397;28;20221;-78
2022/10/30 12:38:47;;;;;;;6.30;2.85;;;;;;;21.45;41.31;64217.53;5055139;28;20440;-77
2022/10/30 12:41:19;;;;;;;3.60;2.88;;;;;;;21.46;41.86;64221.19;5057022;28;20217;-78
2022/10/30 12:44:02;;;;;;;6.35;3.47;;;;;;;21.41;41.54;64213.38;5047781;28;20211;-78
2022/10/30 12:46:34;;;;;;;2.30;2.13;;;;;;;21.63;40.83;64235.81;5048960;28;20228;-79
2022/10/30 12:49:11;;;;;;;4.43;2.80;;;;;;;21.70;41.12;64243.66;5048766;28;20198;-79
2022/10/30 12:51:47;;;;;;;3.03;2.78;;;;;;;21.76;40.89;64247.34;5052605;28;20225;-77
2022/10/30 12:54:23;;;;;;;7.20;3.30;;;;;;;21.92;40.57;64265.63;5048899;28;20232;-79
2022/10/30 12:56:57;;;;;;;3.33;2.97;;;;;;;21.70;40.58;64243.66;5052025;28;20237;-77
2022/10/30 12:59:39;;;;;;;4.65;3.72;;;;;;;21.75;41.33;64245.78;5051066;28;20208;-79
2022/10/30 13:02:18;;;;;;;5.75;2.90;;;;;;;22.10;40.62;64287.56;5070905;28;20230;-79
2022/10/30 13:04:50;;;;;;;3.97;2.65;;;;;;;22.32;39.89;64310.03;5068886;28;20384;-81
2022/10/30 13:07:25;;;;;;;3.58;2.95;;;;;;;22.33;39.77;64314.19;5067172;28;20461;-78
2022/10/30 13:10:03;;;;;;;3.58;2.80;;;;;;;22.36;39.60;64314.22;5059879;28;20374;-80
2022/10/30 13:12:35;;;;;;;2.47;2.25;;;;;;;22.63;38.46;64339.84;5045688;28;20536;-81
2022/10/30 13:15:09;;;;;;;6.47;3.10;;;;;;;22.61;38.85;64338.28;5046902;28;20449;-77
2022/10/30 13:17:36;;;;;;;2.78;2.58;;;;;;;22.49;38.76;64327.78;5054739;28;20216;-78
2022/10/30 13:20:11;;;;;;;8.82;2.08;;;;;;;22.63;38.25;64342.44;5046974;28;20203;-79
2022/10/30 13:22:47;;;;;;;2.38;2.17;;;;;;;22.71;37.35;64351.34;5061943;28;20265;-78
2022/10/30 13:25:20;;;;;;;2.78;1.85;;;;;;;22.73;37.12;64348.25;5067027;28;20193;-79
2022/10/30 13:27:52;;;;;;;6.10;2.55;;;;;;;22.82;36.61;64365.44;5045961;28;20504;-78
2022/10/30 13:30:23;;;;;;;11.93;7.53;;;;;;;22.88;37.47;64368.59;5048907;28;20201;-78
2022/10/30 13:33:05;;;;;;;8.63;6.47;;;;;;;22.79;37.53;64364.91;5054555;28;20239;-79
2022/10/30 13:35:40;;;;;;;4.53;3.65;;;;;;;22.72;37.04;64347.19;5051046;28;20209;-80
2022/10/30 13:38:34;;;;;;;10.50;4.40;;;;;;;22.63;37.33;64337.78;5058408;28;20242;-79
2022/10/30 13:41:08;;;;;;;9.25;5.80;;;;;;;22.56;37.82;64335.13;5056360;28;20235;-79
2022/10/30 13:43:42;;;;;;;8.70;4.00;;;;;;;22.61;37.90;64337.75;5055767;28;20216;-78
2022/10/30 13:46:22;;;;;;;5.32;3.88;;;;;;;22.66;38.06;64340.91;5054697;28;20241;-77
2022/10/30 13:48:58;;;;;;;5.47;3.22;;;;;;;22.70;38.11;64347.69;5045618;28;20405;-77
2022/10/30 13:51:35;;;;;;;4.70;3.33;;;;;;;22.78;37.96;64352.94;5065080;28;20258;-78
2022/10/30 13:54:09;;;;;;;6.07;4.63;;;;;;;22.86;37.35;64361.84;5060227;28;20221;-80
2022/10/30 13:56:36;;;;;;;4.22;3.72;;;;;;;23.00;37.17;64378.03;5059872;28;20251;-78
2022/10/30 13:59:17;;;;;;;3.55;3.08;;;;;;;23.06;37.42;64384.81;5054396;28;20273;-79
2022/10/30 14:01:55;;;;;;;7.45;2.95;;;;;;;23.04;37.01;64382.72;5064217;28;20227;-77
2022/10/30 14:04:29;;;;;;;5.10;3.22;;;;;;;22.99;37.49;64374.91;5051319;28;20283;-79
2022/10/30 14:07:06;;;;;;;4.50;2.70;;;;;;;22.80;37.44;64355.56;5053054;28;20217;-78
2022/10/30 14:09:42;;;;;;;3.13;2.50;;;;;;;22.69;37.51;64351.84;5049996;28;20201;-77
2022/10/30 14:12:44;;;;;;;2.72;2.40;;;;;;;22.50;37.54;64326.25;5060892;28;20262;-78
2022/10/30 14:15:25;;;;;;;4.90;2.78;;;;;;;22.26;38.13;64303.75;5065205;28;20222;-80
2022/10/30 14:18:27;;;;;;;3.88;3.10;;;;;;;22.00;38.82;64271.41;5072451;28;20501;-79
2022/10/30 14:20:56;;;;;;;8.52;3.72;;;;;;;21.69;39.63;64244.69;5031230;28;20291;-79
2022/10/30 14:23:26;;;;;;;6.00;3.60;;;;;;;21.64;39.97;64239.47;5059445;28;20207;-79
2022/10/30 14:26:12;;;;;;;9.85;3.33;;;;;;;21.50;40.12;64222.75;5061138;28;20217;-78
2022/10/30 14:28:42;;;;;;;7.78;3.80;;;;;;;21.41;40.68;64210.25;5048863;28;20255;-79
2022/10/30 14:31:10;;;;;;;5.95;4.00;;;;;;;21.26;40.89;64197.69;5065723;28;20226;-78
2022/10/30 14:33:47;;;;;;;8.75;3.97;;;;;;;21.10;41.44;64180.47;5051203;28;20237;-77
2022/10/30 14:36:20;;;;;;;8.10;4.18;;;;;;;21.03;41.94;64173.16;5049746;28;20216;-78
2022/10/30 14:38:55;;;;;;;9.63;3.60;;;;;;;20.90;42.37;64160.09;5059303;28;20197;-77
2022/10/30 14:41:48;;;;;;;6.38;2.40;;;;;;;20.72;43.10;64146.47;5069798;28;20212;-78
2022/10/30 14:44:59;;;;;;;9.10;4.40;;;;;;;20.62;43.71;64130.88;5049371;28;20204;-78
2022/10/30 14:47:54;;;;;;;14.27;6.50;;;;;;;20.41;44.03;64106.38;5047755;28;20253;-78
2022/10/30 14:50:33;;;;;;;11.63;6.03;;;;;;;20.28;44.46;64095.91;5048401;28;20197;-79
2022/10/30 14:53:17;;;;;;;9.10;4.45;;;;;;;20.15;45.01;64086.97;5048290;28;20513;-76
2022/10/30 14:56:00;;;;;;;4.57;3.47;;;;;;;19.98;45.19;64062.00;5047190;28;20217;-77
2022/10/30 14:58:31;;;;;;;6.90;3.65;;;;;;;19.93;44.86;64056.75;5048498;28;20197;-77
2022/10/30 15:01:31;;;;;;;5.10;3.88;;;;;;;19.83;45.31;64051.00;5052224;28;20217;-80
2022/10/30 15:04:11;;;;;;;8.27;3.55;;;;;;;19.66;45.42;64028.09;5061758;28;20527;-79
2022/10/30 15:06:52;;;;;;;4.72;3.88;;;;;;;19.55;45.88;64022.31;5062012;28;20221;-79
2022/10/30 15:09:33;;;;;;;4.90;3.17;;;;;;;19.41;46.61;64010.81;5069255;28;20238;-79
2022/10/30 15:12:12;;;;;;;7.07;3.85;;;;;;;19.32;46.71;63996.25;5069886;28;20224;-81
2022/10/30 15:14:44;;;;;;;5.88;3.33;;;;;;;19.32;46.94;63996.25;5061998;28;20320;-79
2022/10/30 15:17:23;;;;;;;5.55;2.95;;;;;;;19.25;46.72;63993.59;5048179;28;20424;-78
2022/10/30 15:19:50;;;;;;;6.50;2.97;;;;;;;19.21;47.16;63984.75;5046113;28;20256;-77
2022/10/30 15:22:21;;;;;;;2.97;2.78;;;;;;;19.14;47.19;63977.47;5048385;28;20217;-79
2022/10/30 15:24:50;;;;;;;2.70;2.50;;;;;;;19.07;47.09;63972.75;5064811;28;20211;-78
2022/10/30 15:27:19;;;;;;;7.20;3.95;;;;;;;19.05;47.55;63970.66;5050623;28;20284;-80
2022/10/30 15:29:50;;;;;;;9.13;3.72;;;;;;;19.00;47.40;63962.34;5059415;28;20279;-77
2022/10/30 15:32:19;;;;;;;5.13;3.92;;;;;;;19.00;47.89;63965.44;5058209;28;20563;-78
2022/10/30 15:34:54;;;;;;;5.82;3.88;;;;;;;18.93;47.82;63955.56;5046114;28;20229;-79
2022/10/30 15:37:22;;;;;;;2.88;2.67;;;;;;;18.94;47.85;63958.69;5051122;28;20225;-77
2022/10/30 15:39:49;;;;;;;4.20;3.80;;;;;;;18.84;47.83;63948.78;5051356;28;20197;-80
2022/10/30 15:42:16;;;;;;;3.35;2.47;;;;;;;18.84;47.96;63945.69;5057911;28;20220;-78
2022/10/30 15:44:46;;;;;;;3.72;3.30;;;;;;;18.89;47.88;63950.88;5067691;28;20214;-79
2022/10/30 15:47:16;;;;;;;5.97;2.90;;;;;;;18.92;47.76;63954.53;5068628;28;20220;-77
2022/10/30 15:49:50;;;;;;;6.70;2.60;;;;;;;18.94;47.34;63956.09;5065189;28;20242;-78
2022/10/30 15:52:20;;;;;;;3.67;2.40;;;;;;;18.90;47.74;63957.09;5048687;28;20271;-79
2022/10/30 15:54:55;;;;;;;6.78;2.72;;;;;;;18.90;47.68;63949.34;5050614;28;20213;-77
2022/10/30 15:57:28;;;;;;;3.03;2.67;;;;;;;18.84;48.12;63946.19;5050761;28;20259;-76
2022/10/30 15:59:59;;;;;;;3.05;2.55;;;;;;;18.76;48.06;63934.75;5057286;28;20498;-77
2022/10/30 16:02:26;;;;;;;3.42;3.13;;;;;;;18.76;48.25;63942.50;5047872;28;20571;-77
2022/10/30 16:04:53;;;;;;;4.70;2.30;;;;;;;18.59;48.53;63917.56;5045262;28;20268;-78
2022/10/30 16:07:22;;;;;;;3.40;2.65;;;;;;;18.56;48.89;63919.06;5045360;28;20244;-78
2022/10/30 16:09:56;;;;;;;3.38;2.70;;;;;;;18.49;48.96;63911.78;5046547;28;20217;-79
2022/10/30 16:12:25;;;;;;;7.15;2.90;;;;;;;18.47;49.32;63907.63;5052530;28;20221;-79
2022/10/30 16:14:53;;;;;;;5.35;3.17;;;;;;;18.43;49.38;63906.56;5051331;28;20331;-78
2022/10/30 16:17:22;;;;;;;3.80;2.80;;;;;;;18.43;49.36;63903.97;5047812;28;20374;-79
2022/10/30 16:19:53;;;;;;;3.58;3.28;;;;;;;18.38;49.61;63900.81;5065972;28;20197;-79
2022/10/30 16:22:24;;;;;;;4.00;3.00;;;;;;;18.35;50.00;63895.09;5065933;28;20224;-78
2022/10/30 16:24:52;;;;;;;3.20;2.75;;;;;;;18.31;50.17;63893.50;5049561;28;20231;-78
2022/10/30 16:27:23;;;;;;;4.00;3.25;;;;;;;18.26;49.79;63886.25;5061232;28;20273;-78
2022/10/30 16:29:52;;;;;;;7.60;3.30;;;;;;;18.18;50.21;63875.34;5049573;28;20209;-77
2022/10/30 16:32:21;;;;;;;6.93;3.65;;;;;;;18.09;50.55;63868.53;5065557;28;20220;-78
2022/10/30 16:34:50;;;;;;;6.22;3.75;;;;;;;18.05;51.22;63861.28;5064956;28;20235;-78
2022/10/30 16:37:21;;;;;;;6.40;2.67;;;;;;;17.98;50.99;63859.66;5064451;28;20225;-78
2022/10/30 16:39:50;;;;;;;4.03;2.80;;;;;;;17.98;51.24;63856.56;5070418;28;20193;-78
2022/10/30 16:42:22;;;;;;;4.05;2.92;;;;;;;17.94;51.19;63852.94;5064390;28;20220;-78
2022/10/30 16:44:49;;;;;;;3.83;2.83;;;;;;;17.95;51.17;63853.44;5053374;28;20415;-76
2022/10/30 16:47:24;;;;;;;3.38;2.55;;;;;;;17.83;51.30;63841.47;5047717;28;20227;-79
2022/10/30 16:49:54;;;;;;;3.15;2.72;;;;;;;17.90;51.46;63845.66;5067024;28;20231;-79
2022/10/30 16:52:27;;;;;;;4.25;2.63;;;;;;;17.85;51.31;63837.88;5059930;28;20225;-78
2022/10/30 16:55:04;;;;;;;5.00;2.92;;;;;;;17.82;51.70;63840.44;5065579;28;20240;-76
2022/10/30 16:57:36;;;;;;;4.13;3.13;;;;;;;17.79;51.89;63832.13;5060214;28;20235;-77
2022/10/30 17:00:04;;;;;;;4.75;2.80;;;;;;;17.79;51.85;63834.72;5045763;28;20208;-77
2022/10/30 17:02:34;;;;;;;5.78;3.17;;;;;;;17.76;51.87;63831.59;5052411;28;20411;-79
2022/10/30 17:05:10;;;;;;;3.13;2.92;;;;;;;17.72;51.91;63834.63;5047438;28;20189;-78
2022/10/30 17:07:37;;;;;;;5.22;3.00;;;;;;;17.73;52.29;63827.94;5049374;28;20271;-79
2022/10/30 17:10:32;;;;;;;5.97;3.10;;;;;;;17.70;52.01;63825.34;5048319;28;20201;-78
2022/10/30 17:13:30;;;;;;;5.32;3.42;;;;;;;17.62;52.57;63816.50;5051684;28;20367;-78
2022/10/30 17:15:58;;;;;;;4.72;3.00;;;;;;;17.59;52.88;63815.94;5045205;28;20217;-79
2022/10/30 17:18:31;;;;;;;5.35;3.08;;;;;;;17.53;52.88;63804.56;5052332;28;20200;-78
2022/10/30 17:21:04;;;;;;;9.80;3.13;;;;;;;17.51;52.90;63812.75;5047762;28;20271;-77
2022/10/30 17:23:31;;;;;;;5.07;2.83;;;;;;;17.48;52.88;63804.50;5058661;28;20219;-78
2022/10/30 17:25:58;;;;;;;3.15;2.90;;;;;;;17.51;52.81;63810.19;5058995;28;20228;-80